Time;durP1;ratioP1;P1;durP2;ratioP2;P2;SDS_P1;SDS_P2;PMS_P1;PMS_P2;Temp;Humidity;BMP_temperature;BMP_pressure;BME280_temperature;BME280_humidity;BME280_pressure;Samples;Min_cycle;Max_cycle;Signal;HPM_P1;HPM_P2
2021/06/26 00:02:04;;;;;;;3.78;3.47;;;;;;;19.49;75.77;95933.03;4972899;28;20218;-85
2021/06/26 00:04:30;;;;;;;3.13;2.90;;;;;;;19.51;75.32;95934.44;4972688;28;20700;-85
2021/06/26 00:06:57;;;;;;;3.10;2.80;;;;;;;19.50;75.27;95930.25;4972738;28;20211;-85
2021/06/26 00:09:23;;;;;;;3.40;3.10;;;;;;;19.44;75.71;95944.16;4972396;28;20207;-85
2021/06/26 00:11:50;;;;;;;3.20;2.85;;;;;;;19.40;75.96;95932.59;4972212;28;20208;-85
2021/06/26 00:14:18;;;;;;;3.25;2.92;;;;;;;19.36;76.38;95935.84;4972049;28;20220;-85
2021/06/26 00:16:45;;;;;;;3.35;3.05;;;;;;;19.35;76.16;95934.25;4971971;28;20196;-85
2021/06/26 00:19:12;;;;;;;3.20;2.97;;;;;;;19.34;75.79;95936.06;4971786;28;20232;-87
2021/06/26 00:21:38;;;;;;;4.10;3.10;;;;;;;19.33;76.56;95932.66;4971763;28;20200;-87
2021/06/26 00:24:06;;;;;;;4.80;2.75;;;;;;;19.33;75.75;95931.88;4971288;28;20344;-87
2021/06/26 00:26:33;;;;;;;3.45;2.60;;;;;;;19.27;76.63;95922.31;4971877;28;20197;-85
2021/06/26 00:28:59;;;;;;;4.75;2.80;;;;;;;19.24;76.89;95925.38;4971904;28;20204;-85
2021/06/26 00:31:27;;;;;;;8.57;2.67;;;;;;;19.26;77.10;95924.13;4973742;28;20687;-86
2021/06/26 00:33:54;;;;;;;3.03;2.58;;;;;;;19.41;77.02;95926.34;4961691;28;20228;-86
2021/06/26 00:36:20;;;;;;;3.03;2.83;;;;;;;19.51;76.59;95929.22;4956938;28;20305;-86
2021/06/26 00:38:47;;;;;;;3.13;2.80;;;;;;;19.65;76.03;95919.38;4957677;28;20223;-85
2021/06/26 00:41:13;;;;;;;2.90;2.67;;;;;;;19.72;75.25;95919.28;4956831;28;20197;-85
2021/06/26 00:43:40;;;;;;;2.90;2.60;;;;;;;19.79;75.00;95915.53;4957131;28;20320;-85
2021/06/26 00:46:06;;;;;;;4.07;2.90;;;;;;;19.85;74.43;95922.47;4970897;28;20197;-85
2021/06/26 00:48:34;;;;;;;2.65;2.42;;;;;;;19.84;73.01;95918.25;4975620;28;20205;-85
2021/06/26 00:51:01;;;;;;;4.93;2.67;;;;;;;19.86;73.76;95920.63;4975694;28;20208;-85
2021/06/26 00:53:27;;;;;;;4.32;3.00;;;;;;;19.79;73.35;95918.16;4975828;28;20228;-85
2021/06/26 00:55:54;;;;;;;2.70;2.50;;;;;;;19.75;73.89;95903.16;4974862;28;20235;-85
2021/06/26 00:58:22;;;;;;;2.83;2.60;;;;;;;19.72;74.36;95907.00;4975458;28;20310;-86
2021/06/26 01:00:49;;;;;;;3.55;2.78;;;;;;;19.77;74.07;95906.34;4975205;28;20231;-85
2021/06/26 01:03:15;;;;;;;2.78;2.50;;;;;;;19.73;73.46;95903.38;4975436;28;20211;-85
2021/06/26 01:05:43;;;;;;;3.15;2.53;;;;;;;19.67;74.37;95907.66;4976220;28;20204;-86
2021/06/26 01:08:10;;;;;;;3.20;2.88;;;;;;;19.69;72.44;95902.22;4975905;28;20204;-85
2021/06/26 01:10:36;;;;;;;2.95;2.72;;;;;;;19.62;73.58;95912.00;4975238;28;20196;-85
2021/06/26 01:13:04;;;;;;;3.90;2.63;;;;;;;19.59;73.87;95904.59;4974729;28;20200;-85
2021/06/26 01:15:30;;;;;;;4.10;2.53;;;;;;;19.64;73.25;95904.72;4975031;28;20726;-84
2021/06/26 01:17:57;;;;;;;3.20;2.70;;;;;;;19.70;73.55;95909.03;4975593;28;20208;-85
2021/06/26 01:20:24;;;;;;;4.53;3.10;;;;;;;19.71;72.63;95892.34;4975363;28;20226;-85
2021/06/26 01:22:55;;;;;;;2.97;2.70;;;;;;;19.75;72.92;95898.72;4974694;28;20915;-84
2021/06/26 01:25:23;;;;;;;3.70;2.92;;;;;;;19.76;72.95;95889.06;4974841;28;20232;-85
2021/06/26 01:27:50;;;;;;;2.80;2.60;;;;;;;19.79;72.96;95888.63;4975026;28;20271;-85
2021/06/26 01:30:25;;;;;;;2.95;2.63;;;;;;;19.71;72.72;95891.53;4975035;28;20196;-85
2021/06/26 01:32:51;;;;;;;2.83;2.63;;;;;;;19.79;72.59;95888.63;4975159;28;20203;-85
2021/06/26 01:35:18;;;;;;;2.70;2.50;;;;;;;19.77;71.99;95880.19;4974823;28;20220;-85
2021/06/26 01:37:44;;;;;;;2.88;2.67;;;;;;;19.67;72.26;95891.19;4974606;28;20668;-85
2021/06/26 01:40:15;;;;;;;3.58;2.53;;;;;;;19.59;72.57;95892.34;4973870;28;20234;-85
2021/06/26 01:42:42;;;;;;;3.40;2.85;;;;;;;19.65;72.60;95883.59;4974434;28;20200;-85
2021/06/26 01:45:10;;;;;;;2.80;2.60;;;;;;;19.71;72.37;95884.50;4974784;28;20231;-86
2021/06/26 01:47:36;;;;;;;2.80;2.60;;;;;;;19.73;71.25;95885.06;4974207;28;20196;-85
2021/06/26 01:50:04;;;;;;;2.88;2.53;;;;;;;19.76;71.74;95882.00;4974411;28;20200;-85
2021/06/26 01:52:31;;;;;;;3.17;2.88;;;;;;;19.75;71.82;95879.63;4974724;28;20205;-86
2021/06/26 01:54:57;;;;;;;2.53;2.33;;;;;;;19.78;72.13;95885.22;4975114;28;20242;-85
2021/06/26 01:57:25;;;;;;;3.75;2.83;;;;;;;19.72;70.99;95870.41;4973884;28;20242;-85
2021/06/26 01:59:52;;;;;;;3.15;2.50;;;;;;;19.66;70.42;95869.50;4973102;28;20221;-86
2021/06/26 02:02:18;;;;;;;2.85;2.60;;;;;;;19.63;70.53;95885.63;4963154;28;20192;-85
2021/06/26 02:04:45;;;;;;;2.95;2.75;;;;;;;19.51;70.02;95879.59;4975253;28;20212;-85
2021/06/26 02:07:11;;;;;;;3.00;2.80;;;;;;;19.33;70.29;95879.66;4974770;28;20204;-86
2021/06/26 02:09:38;;;;;;;3.22;2.92;;;;;;;19.21;71.52;95877.00;4974719;28;20219;-85
2021/06/26 02:12:05;;;;;;;3.40;3.10;;;;;;;19.10;71.48;95882.97;4974967;28;20205;-85
2021/06/26 02:14:33;;;;;;;3.00;2.80;;;;;;;19.13;72.14;95877.31;4975360;28;20223;-84
2021/06/26 02:16:59;;;;;;;3.20;2.90;;;;;;;19.15;72.24;95892.75;4974288;28;20770;-85
2021/06/26 02:19:29;;;;;;;3.25;2.95;;;;;;;19.14;72.32;95878.91;4974558;28;20258;-85
2021/06/26 02:21:55;;;;;;;5.22;2.95;;;;;;;19.12;72.16;95890.59;4974345;28;20196;-85
2021/06/26 02:24:22;;;;;;;3.05;2.80;;;;;;;19.15;72.43;95892.75;4974770;28;20227;-86
2021/06/26 02:26:48;;;;;;;3.33;3.00;;;;;;;19.14;71.53;95896.38;4974919;28;20253;-85
2021/06/26 02:29:15;;;;;;;3.13;2.75;;;;;;;19.12;71.53;95877.53;4974562;28;20200;-85
2021/06/26 02:31:44;;;;;;;3.88;3.13;;;;;;;19.03;71.73;95886.72;4974303;28;20686;-84
2021/06/26 02:34:13;;;;;;;3.15;2.80;;;;;;;19.03;72.26;95886.72;4974667;28;20228;-85
2021/06/26 02:36:39;;;;;;;7.85;2.90;;;;;;;19.05;72.44;95888.06;4975248;28;20208;-85
2021/06/26 02:39:06;;;;;;;2.80;2.60;;;;;;;19.10;72.96;95888.19;4974426;28;20231;-85
2021/06/26 02:41:32;;;;;;;3.22;2.92;;;;;;;19.16;72.26;95892.53;4974243;28;20212;-85
2021/06/26 02:43:59;;;;;;;2.90;2.70;;;;;;;19.18;72.61;95890.50;4975265;28;20220;-84
2021/06/26 02:46:25;;;;;;;3.20;3.00;;;;;;;19.12;70.53;95886.16;4976285;28;20737;-85
2021/06/26 02:48:53;;;;;;;3.05;2.75;;;;;;;19.10;70.83;95887.41;4978385;28;20565;-85
2021/06/26 02:51:20;;;;;;;3.75;3.05;;;;;;;19.09;71.23;95881.38;4979057;28;20212;-85
2021/06/26 02:53:46;;;;;;;2.80;2.58;;;;;;;19.09;71.62;95883.19;4978359;28;20231;-85
2021/06/26 02:56:13;;;;;;;3.17;2.50;;;;;;;19.08;72.96;95881.59;4978055;28;20220;-85
2021/06/26 02:58:39;;;;;;;2.72;2.53;;;;;;;19.03;71.24;95881.50;4979421;28;20572;-86
2021/06/26 03:01:06;;;;;;;4.00;2.65;;;;;;;19.04;70.64;95880.47;4978382;28;20215;-85
2021/06/26 03:03:33;;;;;;;3.10;2.50;;;;;;;18.97;72.02;95883.16;4977798;28;20315;-85
2021/06/26 03:06:01;;;;;;;3.35;2.55;;;;;;;19.03;71.98;95866.63;4978176;28;20676;-84
2021/06/26 03:08:27;;;;;;;2.75;2.45;;;;;;;19.14;71.32;95878.91;4978875;28;20268;-84
2021/06/26 03:10:54;;;;;;;3.13;2.78;;;;;;;19.17;72.37;95872.47;4978153;28;20204;-85
2021/06/26 03:13:20;;;;;;;3.63;2.78;;;;;;;19.09;71.34;95876.16;4977375;28;20200;-85
2021/06/26 03:15:49;;;;;;;2.90;2.45;;;;;;;19.15;71.90;95872.69;4978765;28;20208;-85
2021/06/26 03:18:16;;;;;;;4.05;2.70;;;;;;;19.18;71.24;95871.44;4978546;28;20219;-85
2021/06/26 03:20:42;;;;;;;2.70;2.50;;;;;;;19.18;71.75;95871.44;4978279;28;20230;-85
2021/06/26 03:23:11;;;;;;;3.08;2.70;;;;;;;19.11;70.37;95868.13;4977432;28;20211;-85
2021/06/26 03:25:37;;;;;;;3.33;3.05;;;;;;;18.91;71.25;95874.41;4978253;28;20215;-86
2021/06/26 03:28:04;;;;;;;3.10;2.90;;;;;;;18.91;72.03;95882.22;4977808;28;20287;-85
2021/06/26 03:30:31;;;;;;;2.83;2.63;;;;;;;18.98;71.70;95879.53;4978455;28;20204;-85
2021/06/26 03:32:58;;;;;;;3.28;2.80;;;;;;;19.09;71.56;95883.19;4977230;28;20200;-84
2021/06/26 03:35:24;;;;;;;2.78;2.33;;;;;;;19.13;71.39;95879.94;4978148;28;20226;-85
2021/06/26 03:37:51;;;;;;;2.60;2.40;;;;;;;19.10;71.16;95884.78;4977494;28;20215;-86
2021/06/26 03:40:19;;;;;;;2.83;2.50;;;;;;;19.05;69.48;95875.00;4977850;28;20224;-85
2021/06/26 03:42:45;;;;;;;2.90;2.65;;;;;;;19.08;70.78;95882.41;4977660;28;20212;-85
2021/06/26 03:45:12;;;;;;;2.75;2.10;;;;;;;19.17;70.43;95873.25;4975578;28;20228;-85
2021/06/26 03:47:39;;;;;;;3.17;2.47;;;;;;;19.28;71.40;95876.91;4977402;28;20200;-85
2021/06/26 03:50:07;;;;;;;2.60;2.40;;;;;;;19.20;69.91;95875.41;4977713;28;20196;-85
2021/06/26 03:52:34;;;;;;;2.53;2.33;;;;;;;19.16;70.68;95874.28;4976675;28;20283;-85
2021/06/26 03:55:00;;;;;;;2.65;2.20;;;;;;;19.24;70.34;95871.31;4977508;28;20240;-86
2021/06/26 03:57:28;;;;;;;2.55;2.35;;;;;;;19.02;69.25;95880.69;4975592;28;20247;-85
2021/06/26 03:59:55;;;;;;;2.40;2.25;;;;;;;18.97;70.54;95877.94;4976576;28;20239;-85
2021/06/26 04:02:21;;;;;;;2.20;2.10;;;;;;;19.03;70.66;95871.84;4977623;28;20215;-85
2021/06/26 04:04:48;;;;;;;3.03;2.38;;;;;;;19.15;70.74;95870.06;4977772;28;20779;-85
2021/06/26 04:07:14;;;;;;;2.60;2.40;;;;;;;19.26;69.92;95871.09;4977264;28;20197;-85
2021/06/26 04:09:41;;;;;;;2.83;2.63;;;;;;;19.25;69.57;95867.69;4976798;28;20262;-84
2021/06/26 04:12:08;;;;;;;2.60;2.40;;;;;;;19.26;69.58;95878.94;4976206;28;20208;-85
2021/06/26 04:14:36;;;;;;;4.10;2.67;;;;;;;19.27;69.37;95883.13;4976015;28;20269;-85
2021/06/26 04:17:05;;;;;;;2.97;2.47;;;;;;;19.38;69.66;95871.16;4975965;28;20208;-85
2021/06/26 04:19:32;;;;;;;2.70;2.50;;;;;;;19.48;69.63;95879.22;4976168;28;20217;-85
2021/06/26 04:21:58;;;;;;;3.03;2.70;;;;;;;19.55;69.04;95882.56;4975704;28;20292;-84
2021/06/26 04:24:25;;;;;;;3.00;2.80;;;;;;;19.59;69.22;95881.88;4975539;28;20707;-85
2021/06/26 04:26:51;;;;;;;3.10;2.80;;;;;;;19.56;68.94;95884.94;4974676;28;20211;-85
2021/06/26 04:29:18;;;;;;;4.10;3.25;;;;;;;19.60;69.17;95878.25;4974464;28;20208;-85
2021/06/26 04:31:46;;;;;;;3.05;2.80;;;;;;;19.65;69.47;95883.59;4991782;28;20195;-85
2021/06/26 04:34:12;;;;;;;3.17;2.90;;;;;;;19.54;69.72;95878.34;4990092;28;20221;-85
2021/06/26 04:36:40;;;;;;;3.33;3.03;;;;;;;19.51;69.99;95894.47;4964394;28;20207;-85
2021/06/26 04:39:09;;;;;;;5.32;3.30;;;;;;;19.42;69.61;95893.19;4976553;28;20552;-85
2021/06/26 04:41:35;;;;;;;4.57;3.17;;;;;;;19.35;69.92;95890.66;4962799;28;20245;-84
2021/06/26 04:44:03;;;;;;;4.88;4.45;;;;;;;19.28;69.92;95892.56;4962226;28;20223;-86
2021/06/26 04:46:30;;;;;;;5.35;3.50;;;;;;;19.28;71.10;95889.94;4976161;28;20214;-85
2021/06/26 04:48:58;;;;;;;4.53;4.03;;;;;;;19.35;70.53;95900.31;4960449;28;20200;-84
2021/06/26 04:51:25;;;;;;;5.68;3.97;;;;;;;19.36;72.00;95892.25;4957527;28;20673;-84
2021/06/26 04:53:52;;;;;;;4.65;4.25;;;;;;;19.41;70.73;95899.44;4976986;28;20234;-84
2021/06/26 04:56:18;;;;;;;4.95;4.55;;;;;;;19.28;71.92;95895.19;4975799;28;20897;-84
2021/06/26 04:58:45;;;;;;;5.03;4.63;;;;;;;19.18;72.21;95892.31;4975942;28;21526;-84
2021/06/26 05:01:11;;;;;;;10.25;4.90;;;;;;;19.17;72.44;95896.75;4967725;28;20229;-84
2021/06/26 05:03:39;;;;;;;5.50;5.00;;;;;;;19.15;73.17;95895.38;4970663;28;20211;-84
2021/06/26 05:06:07;;;;;;;5.93;4.97;;;;;;;19.18;73.80;95882.69;4976222;28;20213;-84
2021/06/26 05:08:34;;;;;;;5.63;4.90;;;;;;;19.23;73.97;95882.00;4976126;28;20201;-85
2021/06/26 05:11:02;;;;;;;5.75;5.22;;;;;;;19.32;73.96;95883.28;4975406;28;20300;-85
2021/06/26 05:13:28;;;;;;;6.28;5.78;;;;;;;19.26;74.29;95890.19;4972574;28;20667;-85
2021/06/26 05:15:55;;;;;;;7.32;6.53;;;;;;;19.03;76.19;95884.91;4971186;28;20215;-85
2021/06/26 05:18:22;;;;;;;6.30;5.72;;;;;;;18.95;76.61;95879.97;4970982;28;20204;-85
2021/06/26 05:20:57;;;;;;;6.25;5.75;;;;;;;18.99;76.42;95883.75;4971089;28;20228;-84
2021/06/26 05:23:27;;;;;;;6.65;6.05;;;;;;;18.92;75.98;95883.81;4970832;28;20203;-86
2021/06/26 05:25:53;;;;;;;6.60;6.00;;;;;;;18.93;75.20;95884.63;4971545;28;20220;-85
2021/06/26 05:28:31;;;;;;;6.03;5.53;;;;;;;18.97;76.26;95885.78;4971560;28;20200;-85
2021/06/26 05:30:57;;;;;;;6.05;5.55;;;;;;;19.07;75.28;95891.25;4951719;29;20205;-85
2021/06/26 05:33:24;;;;;;;6.07;5.57;;;;;;;19.16;74.44;95878.69;4951665;28;20205;-85
2021/06/26 05:35:51;;;;;;;6.20;5.40;;;;;;;19.25;74.22;95885.97;4952051;28;20275;-85
2021/06/26 05:38:17;;;;;;;7.80;7.10;;;;;;;19.28;73.92;95880.31;4952302;28;20661;-86
2021/06/26 05:40:48;;;;;;;10.88;7.63;;;;;;;19.36;72.62;95887.03;4951352;29;20734;-86
2021/06/26 05:43:15;;;;;;;7.97;6.55;;;;;;;19.39;71.81;95885.78;4951439;28;20211;-85
2021/06/26 05:45:42;;;;;;;6.95;6.35;;;;;;;19.41;74.12;95892.38;4968702;28;20223;-86
2021/06/26 05:48:09;;;;;;;5.88;5.47;;;;;;;19.32;74.45;95896.31;4970429;28;20204;-85
2021/06/26 05:50:37;;;;;;;6.72;6.18;;;;;;;19.51;73.08;95892.66;4969970;28;20211;-86
2021/06/26 05:53:06;;;;;;;7.45;6.85;;;;;;;19.63;70.97;95892.66;4970148;28;20278;-87
2021/06/26 05:55:36;;;;;;;7.45;6.85;;;;;;;19.59;71.80;95891.53;4969923;28;20215;-86
2021/06/26 05:58:05;;;;;;;6.43;5.93;;;;;;;19.63;71.42;95898.69;4970475;28;20227;-86
2021/06/26 06:00:33;;;;;;;6.93;6.25;;;;;;;19.70;71.35;95893.38;4970232;28;20224;-86
2021/06/26 06:03:02;;;;;;;7.25;6.55;;;;;;;19.59;70.34;95888.94;4970223;28;20655;-86
2021/06/26 06:05:28;;;;;;;7.90;6.85;;;;;;;19.57;71.04;95888.34;4970506;28;20224;-87
2021/06/26 06:07:56;;;;;;;6.97;5.82;;;;;;;19.55;71.62;95883.34;4970547;28;20215;-86
2021/06/26 06:10:27;;;;;;;6.60;6.00;;;;;;;19.61;71.51;95881.66;4969967;28;20200;-86
2021/06/26 06:12:57;;;;;;;7.18;6.57;;;;;;;19.67;71.65;95880.75;4970375;28;20208;-87
2021/06/26 06:15:25;;;;;;;7.00;6.40;;;;;;;19.78;71.26;95879.19;4970097;28;20590;-86
2021/06/26 06:17:52;;;;;;;7.15;6.38;;;;;;;19.90;71.61;95864.28;4970035;28;20227;-86
2021/06/26 06:20:21;;;;;;;7.03;6.43;;;;;;;19.90;70.88;95864.28;4969305;28;20703;-86
2021/06/26 06:22:48;;;;;;;6.93;6.32;;;;;;;19.90;70.87;95864.28;4969778;28;20303;-86
2021/06/26 06:25:15;;;;;;;6.60;6.00;;;;;;;19.98;71.06;95861.34;4970101;28;20699;-86
2021/06/26 06:27:42;;;;;;;8.93;8.23;;;;;;;19.89;68.63;95866.09;4969874;28;20200;-86
2021/06/26 06:30:10;;;;;;;7.63;6.95;;;;;;;19.82;68.85;95870.63;4969670;28;20323;-86
2021/06/26 06:32:38;;;;;;;7.20;6.43;;;;;;;19.76;70.26;95868.16;4969851;28;20212;-86
2021/06/26 06:35:06;;;;;;;7.22;6.60;;;;;;;19.74;71.20;95872.81;4969750;28;20787;-86
2021/06/26 06:37:33;;;;;;;7.13;6.50;;;;;;;19.79;70.87;95873.72;4969952;28;20200;-86
2021/06/26 06:40:05;;;;;;;7.30;6.70;;;;;;;19.73;69.90;95866.00;4969590;28;20315;-86
2021/06/26 06:42:35;;;;;;;7.30;6.60;;;;;;;19.81;70.17;95866.47;4969555;28;20218;-88
2021/06/26 06:45:41;;;;;;;7.03;6.40;;;;;;;19.86;70.27;95873.59;4969868;28;20279;-88
2021/06/26 06:48:09;;;;;;;6.80;6.30;;;;;;;20.00;68.91;95872.38;4952300;28;20208;-88
2021/06/26 06:50:38;;;;;;;7.22;6.53;;;;;;;19.95;68.94;95869.63;4969588;28;20288;-87
2021/06/26 06:53:05;;;;;;;6.82;6.25;;;;;;;20.01;68.34;95877.34;4969422;28;20216;-87
2021/06/26 06:55:50;;;;;;;7.45;6.75;;;;;;;20.09;67.74;95875.41;4969254;28;20228;-88
2021/06/26 06:58:18;;;;;;;7.43;6.38;;;;;;;20.11;67.92;95870.75;4969739;28;20193;-87
2021/06/26 07:00:45;;;;;;;7.10;6.43;;;;;;;20.21;67.53;95865.72;4969355;28;20227;-89
2021/06/26 07:03:13;;;;;;;5.68;5.22;;;;;;;20.07;66.12;95864.38;4969220;28;20787;-88
2021/06/26 07:05:40;;;;;;;5.88;5.38;;;;;;;20.09;67.46;95870.97;4969354;28;20204;-87
2021/06/26 07:08:11;;;;;;;6.68;6.07;;;;;;;20.14;67.91;95863.25;4969990;28;20209;-88
2021/06/26 07:10:37;;;;;;;7.47;6.00;;;;;;;20.28;68.38;95876.88;4970448;28;20231;-88
2021/06/26 07:13:04;;;;;;;7.05;6.45;;;;;;;20.40;67.60;95866.44;4969341;28;20192;-88
2021/06/26 07:15:31;;;;;;;6.32;5.80;;;;;;;20.43;66.97;95865.94;4969191;28;20228;-88
2021/06/26 07:17:58;;;;;;;49.83;44.67;;;;;;;20.52;67.08;95864.56;4969601;28;20207;-88
2021/06/26 07:20:26;;;;;;;9.20;8.40;;;;;;;20.63;67.78;95858.50;4969881;28;20235;-89
2021/06/26 07:23:16;;;;;;;7.55;6.88;;;;;;;20.64;66.54;95858.28;4969152;28;20200;-88
2021/06/26 07:25:51;;;;;;;6.82;6.00;;;;;;;20.67;66.36;95852.59;4969578;28;20623;-88
2021/06/26 07:28:21;;;;;;;5.57;5.07;;;;;;;20.63;65.66;95859.31;4969480;28;20219;-86
2021/06/26 07:30:52;;;;;;;5.50;5.00;;;;;;;20.65;64.72;95851.22;4969742;28;20215;-86
2021/06/26 07:33:21;;;;;;;5.80;5.20;;;;;;;20.72;65.27;95859.75;4972271;28;20627;-88
2021/06/26 07:35:52;;;;;;;4.53;4.13;;;;;;;20.89;62.87;95851.94;4972448;28;20204;-87
2021/06/26 07:38:36;;;;;;;4.75;4.20;;;;;;;20.91;63.85;95857.72;4973043;28;20204;-87
2021/06/26 07:41:05;;;;;;;4.47;4.07;;;;;;;20.96;63.65;95857.84;4972588;28;20235;-87
2021/06/26 07:43:38;;;;;;;4.22;3.92;;;;;;;21.07;62.90;95856.97;4972245;28;20228;-88
2021/06/26 07:46:07;;;;;;;4.78;4.35;;;;;;;21.12;61.67;95851.03;4972485;28;20204;-88
2021/06/26 07:48:36;;;;;;;4.85;4.45;;;;;;;21.22;61.66;95846.00;4972750;28;20224;-89
2021/06/26 07:51:31;;;;;;;5.53;4.15;;;;;;;21.22;61.30;95843.38;4972335;28;20223;-88
2021/06/26 07:54:26;;;;;;;;;;;;;;;;;;;;;
2021/06/26 07:56:57;;;;;;;4.80;4.40;;;;;;;21.39;61.27;95836.31;5011465;28;20236;-88
2021/06/26 07:59:24;;;;;;;4.05;3.72;;;;;;;21.50;63.53;95832.84;5014285;28;20194;-87
2021/06/26 08:01:53;;;;;;;4.57;4.18;;;;;;;21.60;61.56;95821.69;5010994;28;20222;-88
2021/06/26 08:04:26;;;;;;;4.50;4.10;;;;;;;21.72;60.69;95825.03;5011729;28;20214;-88
2021/06/26 08:06:58;;;;;;;4.35;4.00;;;;;;;21.79;59.85;95827.47;5011629;28;20234;-88
2021/06/26 08:09:27;;;;;;;4.72;4.10;;;;;;;21.81;57.99;95822.78;5011530;28;20203;-88
2021/06/26 08:12:07;;;;;;;3.70;3.40;;;;;;;21.80;58.59;95824.63;5011196;28;20678;-87
2021/06/26 08:14:36;;;;;;;4.07;3.70;;;;;;;21.81;58.27;95813.09;5011021;28;20223;-88
2021/06/26 08:17:08;;;;;;;4.00;3.70;;;;;;;21.85;57.80;95808.97;5012101;28;20233;-89
2021/06/26 08:19:46;;;;;;;4.68;3.65;;;;;;;21.86;59.31;95813.19;5011176;28;20198;-88
2021/06/26 08:22:27;;;;;;;3.55;3.25;;;;;;;21.88;58.00;95807.69;5010600;28;20226;-87
2021/06/26 08:25:01;;;;;;;3.50;3.20;;;;;;;22.07;57.89;95810.88;5011262;28;20230;-87
2021/06/26 08:27:29;;;;;;;3.10;2.90;;;;;;;22.13;55.99;95808.03;5011046;28;20257;-88
2021/06/26 08:30:09;;;;;;;3.10;2.90;;;;;;;22.14;54.93;95814.09;5010985;28;20195;-88
2021/06/26 08:32:45;;;;;;;3.60;3.30;;;;;;;22.10;55.03;95807.75;5010925;28;20226;-88
2021/06/26 08:35:24;;;;;;;3.45;3.25;;;;;;;22.24;55.93;95811.59;5010611;28;20223;-89
2021/06/26 08:38:08;;;;;;;3.42;3.22;;;;;;;22.40;55.42;95816.78;5010314;28;20249;-89
2021/06/26 08:40:42;;;;;;;3.40;3.20;;;;;;;22.65;56.06;95811.03;5010567;28;20222;-88
2021/06/26 08:46:23;;;;;;;;;;;;;;;;;;;;;
2021/06/26 08:51:59;;;;;;;3.58;3.28;;;;;;;22.74;53.83;95811.38;5009013;28;20211;-86
2021/06/26 08:54:34;;;;;;;4.53;4.13;;;;;;;22.80;53.42;95805.16;5009781;28;20230;-86
2021/06/26 08:59:58;;;;;;;3.95;3.72;;;;;;;23.09;54.82;95805.72;5009443;28;20626;-88
2021/06/26 09:02:37;;;;;;;3.75;3.45;;;;;;;23.23;53.74;95793.75;5009757;28;20728;-90
2021/06/26 09:05:15;;;;;;;3.80;3.50;;;;;;;23.43;54.14;95796.53;5010178;28;20210;-88
2021/06/26 09:08:17;;;;;;;3.55;3.25;;;;;;;23.59;51.64;95783.50;5010572;28;20209;-89
2021/06/26 09:10:53;;;;;;;4.00;3.60;;;;;;;23.66;50.53;95787.53;4985370;28;20845;-89
2021/06/26 09:16:25;;;;;;;4.15;3.83;;;;;;;23.76;50.18;95790.19;5008144;28;20214;-89
2021/06/26 09:18:57;;;;;;;3.63;3.40;;;;;;;23.79;49.84;95791.53;5009766;28;20295;-88
2021/06/26 09:21:29;;;;;;;3.80;3.50;;;;;;;23.53;50.37;95793.19;5009789;28;20234;-88
2021/06/26 09:24:06;;;;;;;3.53;3.22;;;;;;;23.83;50.21;95792.63;5009836;28;20717;-89
2021/06/26 09:26:41;;;;;;;4.07;3.33;;;;;;;23.89;49.71;95790.78;5010174;28;20432;-88
2021/06/26 09:29:24;;;;;;;3.33;3.10;;;;;;;24.00;48.58;95789.81;5009901;28;20693;-89
2021/06/26 09:31:53;;;;;;;3.15;2.95;;;;;;;24.11;49.06;95791.41;5009833;28;20241;-88
2021/06/26 09:35:11;;;;;;;3.50;3.20;;;;;;;24.30;49.85;95792.59;5009763;28;20223;-88
2021/06/26 09:37:38;;;;;;;3.67;3.10;;;;;;;24.44;49.56;95791.03;5008955;28;20203;-89
2021/06/26 09:40:23;;;;;;;3.90;3.60;;;;;;;24.25;48.01;95791.75;5009948;28;20199;-90
2021/06/26 09:43:06;;;;;;;3.70;3.40;;;;;;;24.38;49.98;95788.69;5007784;28;20223;-89
2021/06/26 09:45:39;;;;;;;3.38;3.08;;;;;;;24.69;49.24;95782.44;5005530;28;20269;-89
2021/06/26 09:51:48;;;;;;;3.30;3.10;;;;;;;24.89;47.98;95780.88;4986835;28;20291;-88
2021/06/26 09:54:27;;;;;;;3.20;3.00;;;;;;;25.08;48.22;95777.50;4988597;28;20241;-88
2021/06/26 09:57:04;;;;;;;20.88;18.88;;;;;;;25.21;48.39;95768.28;4987685;28;20764;-88
2021/06/26 09:59:54;;;;;;;4.65;4.25;;;;;;;25.25;46.69;95758.78;4991106;28;20794;-88
2021/06/26 10:02:36;;;;;;;3.38;3.08;;;;;;;25.27;46.34;95761.97;5007488;28;20566;-89
2021/06/26 10:07:42;;;;;;;3.33;3.03;;;;;;;25.04;45.35;95763.28;4967796;28;20219;-86
2021/06/26 10:13:43;;;;;;;2.90;2.70;;;;;;;25.19;45.78;95759.88;4968054;28;20232;-88
2021/06/26 10:16:43;;;;;;;3.03;2.83;;;;;;;25.12;45.77;95754.84;4969661;28;20737;-89
2021/06/26 10:19:18;;;;;;;3.00;2.80;;;;;;;24.74;45.00;95757.97;4966602;28;20283;-89
2021/06/26 10:21:58;;;;;;;3.00;2.80;;;;;;;24.86;46.83;95745.31;4969010;28;20231;-88
2021/06/26 10:24:39;;;;;;;3.00;2.80;;;;;;;25.03;47.31;95753.78;4969095;28;20230;-89
2021/06/26 10:27:17;;;;;;;3.50;3.20;;;;;;;24.86;44.55;95750.59;4969698;28;20699;-89
2021/06/26 10:29:58;;;;;;;2.90;2.70;;;;;;;24.78;46.14;95743.22;4969044;28;20227;-89
2021/06/26 10:32:29;;;;;;;3.08;2.88;;;;;;;24.81;46.49;95752.44;4968937;28;20652;-89
2021/06/26 10:35:24;;;;;;;3.10;2.80;;;;;;;24.83;45.89;95750.31;4969303;28;20216;-88
2021/06/26 10:38:12;;;;;;;4.93;3.20;;;;;;;25.07;47.10;95735.63;4966256;28;20208;-88
2021/06/26 10:40:59;;;;;;;6.13;3.30;;;;;;;25.31;47.52;95749.84;4949199;29;20215;-89
2021/06/26 10:43:32;;;;;;;3.15;2.95;;;;;;;25.29;45.86;95741.41;4972404;23;20287;-89
2021/06/26 10:46:11;;;;;;;3.05;2.85;;;;;;;25.37;44.98;95748.78;4988349;28;20206;-85
2021/06/26 10:49:05;;;;;;;3.00;2.80;;;;;;;25.32;46.07;95746.16;4988185;28;20211;-85
2021/06/26 10:51:55;;;;;;;3.65;3.38;;;;;;;25.28;47.26;95752.22;4989603;28;20208;-85
2021/06/26 10:54:49;;;;;;;3.63;3.33;;;;;;;25.37;45.51;95746.16;4982361;28;20254;-86
2021/06/26 10:57:30;;;;;;;2.83;2.63;;;;;;;25.33;45.14;95747.72;4987730;28;20956;-86
2021/06/26 11:00:09;;;;;;;3.55;3.33;;;;;;;25.44;46.52;95744.00;4988844;28;20302;-86
2021/06/26 11:03:04;;;;;;;2.80;2.58;;;;;;;25.70;46.13;95744.00;4987759;28;20285;-86
2021/06/26 11:05:41;;;;;;;2.90;2.70;;;;;;;25.76;45.12;95750.84;4987861;28;20243;-86
2021/06/26 11:08:18;;;;;;;2.75;2.53;;;;;;;25.90;44.82;95738.66;4991526;28;20202;-89
2021/06/26 11:11:09;;;;;;;3.25;3.05;;;;;;;25.71;44.58;95737.66;4975619;28;20278;-88
2021/06/26 11:13:35;;;;;;;3.42;2.75;;;;;;;25.82;45.19;95741.84;4983239;28;20220;-86
2021/06/26 11:16:07;;;;;;;3.15;2.85;;;;;;;25.98;45.05;95743.38;4972388;28;20199;-85
2021/06/26 11:21:46;;;;;;;2.80;2.60;;;;;;;25.90;44.21;95741.31;4967545;28;20227;-85
2021/06/26 11:24:13;;;;;;;2.92;2.65;;;;;;;25.79;44.11;95737.91;4992005;28;20230;-86
2021/06/26 11:26:56;;;;;;;2.50;2.30;;;;;;;25.91;43.96;95739.47;4991403;28;20196;-85
2021/06/26 11:29:35;;;;;;;2.85;2.65;;;;;;;26.00;42.57;95737.84;4992851;28;20207;-87
2021/06/26 11:41:10;;;;;;;2.67;2.47;;;;;;;26.19;43.38;95724.81;4990139;28;20204;-88
2021/06/26 11:44:14;;;;;;;3.38;2.80;;;;;;;26.24;44.43;95730.09;4976718;28;20327;-89
2021/06/26 11:46:41;;;;;;;3.60;2.88;;;;;;;26.32;44.21;95729.56;4991268;28;20207;-87
2021/06/26 11:49:10;;;;;;;2.63;2.42;;;;;;;26.56;46.03;95725.16;4999141;28;20202;-88
2021/06/26 11:52:00;;;;;;;2.80;2.60;;;;;;;26.59;43.81;95724.63;5010306;28;20206;-86
2021/06/26 11:54:37;;;;;;;3.42;2.70;;;;;;;26.60;43.51;95723.56;5011131;28;20229;-87
2021/06/26 11:57:07;;;;;;;2.80;2.60;;;;;;;26.63;43.34;95717.75;5002694;28;20226;-83
2021/06/26 11:59:49;;;;;;;2.67;2.47;;;;;;;26.59;43.34;95718.56;5010996;28;20250;-84
2021/06/26 12:02:32;;;;;;;2.80;2.60;;;;;;;26.84;44.23;95715.75;5011322;28;20597;-86
2021/06/26 12:04:59;;;;;;;13.50;12.27;;;;;;;26.91;43.18;95718.09;5010775;28;20227;-84
2021/06/26 12:07:34;;;;;;;4.32;4.03;;;;;;;26.82;42.80;95723.16;5010989;28;20202;-84
2021/06/26 12:10:04;;;;;;;3.30;3.00;;;;;;;26.52;43.23;95713.59;5012393;28;20201;-86
2021/06/26 12:12:37;;;;;;;4.53;3.13;;;;;;;26.30;43.64;95708.69;5013078;28;20872;-83
2021/06/26 12:15:05;;;;;;;3.22;2.95;;;;;;;26.17;43.82;95714.53;5010320;28;20280;-85
2021/06/26 12:17:31;;;;;;;3.38;3.10;;;;;;;26.55;45.26;95715.69;5010630;28;20210;-84
2021/06/26 12:20:02;;;;;;;19.52;17.85;;;;;;;26.65;43.26;95696.34;4995145;28;20204;-85
2021/06/26 12:22:30;;;;;;;2.83;2.63;;;;;;;26.30;43.94;95713.97;4990198;28;20231;-85
2021/06/26 12:25:08;;;;;;;3.40;3.00;;;;;;;26.30;43.51;95713.19;4990282;28;20227;-85
2021/06/26 12:27:59;;;;;;;3.60;2.78;;;;;;;26.29;43.52;95706.31;4991352;28;20203;-86
2021/06/26 12:30:26;;;;;;;3.47;3.17;;;;;;;26.53;44.47;95707.25;4990204;28;20207;-85